sensor_id;sensor_type;location;lat;lon;timestamp;pressure;altitude;pressure_sealevel;temperature;humidity
41636;BME280;27623;51.966;4.602;2023-02-19T00:01:05;64317.28;;;10.11;100.00
41636;BME280;27623;51.966;4.602;2023-02-19T00:03:30;64322.19;;;10.16;100.00
41636;BME280;27623;51.966;4.602;2023-02-19T00:05:55;64323.84;;;10.17;100.00
41636;BME280;27623;51.966;4.602;2023-02-19T00:08:21;64324.94;;;10.11;100.00
41636;BME280;27623;51.966;4.602;2023-02-19T00:10:46;64346.75;;;10.10;100.00
41636;BME280;27623;51.966;4.602;2023-02-19T00:13:12;64320.38;;;10.12;100.00
41636;BME280;27623;51.966;4.602;2023-02-19T00:15:39;64326.19;;;10.22;100.00
41636;BME280;27623;51.966;4.602;2023-02-19T00:18:04;64327.47;;;10.18;100.00
41636;BME280;27623;51.966;4.602;2023-02-19T00:20:29;64344.22;;;10.24;100.00
41636;BME280;27623;51.966;4.602;2023-02-19T00:22:55;64327.84;;;10.23;100.00
41636;BME280;27623;51.966;4.602;2023-02-19T00:25:20;64334.19;;;10.13;100.00
41636;BME280;27623;51.966;4.602;2023-02-19T00:27:46;64337.66;;;10.18;100.00
41636;BME280;27623;51.966;4.602;2023-02-19T00:30:11;64296.19;;;10.08;100.00
41636;BME280;27623;51.966;4.602;2023-02-19T00:32:37;64332.19;;;10.20;100.00
41636;BME280;27623;51.966;4.602;2023-02-19T00:35:03;64323.28;;;10.17;100.00
41636;BME280;27623;51.966;4.602;2023-02-19T00:37:28;64311.66;;;10.25;100.00
41636;BME280;27623;51.966;4.602;2023-02-19T00:39:53;64304.00;;;10.18;100.00
41636;BME280;27623;51.966;4.602;2023-02-19T00:42:19;64336.03;;;10.24;100.00
41636;BME280;27623;51.966;4.602;2023-02-19T00:44:44;64361.84;;;10.36;100.00
41636;BME280;27623;51.966;4.602;2023-02-19T00:47:09;64347.13;;;10.29;100.00
41636;BME280;27623;51.966;4.602;2023-02-19T00:49:35;64355.66;;;10.35;100.00
41636;BME280;27623;51.966;4.602;2023-02-19T00:52:00;64304.91;;;10.30;100.00
41636;BME280;27623;51.966;4.602;2023-02-19T00:54:26;64311.66;;;10.32;100.00
41636;BME280;27623;51.966;4.602;2023-02-19T00:56:51;64336.56;;;10.31;100.00
41636;BME280;27623;51.966;4.602;2023-02-19T00:59:17;64347.47;;;10.27;100.00
41636;BME280;27623;51.966;4.602;2023-02-19T01:01:43;64323.28;;;10.31;100.00
41636;BME280;27623;51.966;4.602;2023-02-19T01:04:09;64355.13;;;10.35;100.00
41636;BME280;27623;51.966;4.602;2023-02-19T01:06:35;64322.00;;;10.27;100.00
41636;BME280;27623;51.966;4.602;2023-02-19T01:09:02;64328.03;;;10.26;100.00
41636;BME280;27623;51.966;4.602;2023-02-19T01:11:28;64336.75;;;10.34;100.00
41636;BME280;27623;51.966;4.602;2023-02-19T01:13:57;64335.44;;;10.45;100.00
41636;BME280;27623;51.966;4.602;2023-02-19T01:16:23;64369.84;;;10.41;100.00
41636;BME280;27623;51.966;4.602;2023-02-19T01:18:52;64362.59;;;10.39;100.00
41636;BME280;27623;51.966;4.602;2023-02-19T01:21:20;64345.31;;;10.32;100.00
41636;BME280;27623;51.966;4.602;2023-02-19T01:23:47;64346.75;;;10.31;100.00
41636;BME280;27623;51.966;4.602;2023-02-19T01:26:16;64341.66;;;10.31;100.00
41636;BME280;27623;51.966;4.602;2023-02-19T01:28:42;64360.94;;;10.30;100.00
41636;BME280;27623;51.966;4.602;2023-02-19T01:31:11;64387.16;;;10.33;100.00
41636;BME280;27623;51.966;4.602;2023-02-19T01:33:37;64332.19;;;10.35;100.00
41636;BME280;27623;51.966;4.602;2023-02-19T01:36:03;64366.75;;;10.41;100.00
41636;BME280;27623;51.966;4.602;2023-02-19T01:38:29;64371.50;;;10.36;100.00
41636;BME280;27623;51.966;4.602;2023-02-19T01:43:21;64356.19;;;10.43;100.00
41636;BME280;27623;51.966;4.602;2023-02-19T01:45:46;64356.19;;;10.43;100.00
41636;BME280;27623;51.966;4.602;2023-02-19T01:48:16;64370.75;;;10.47;100.00
41636;BME280;27623;51.966;4.602;2023-02-19T01:51:04;64365.84;;;10.42;100.00
41636;BME280;27623;51.966;4.602;2023-02-19T01:53:33;64367.47;;;10.51;100.00
41636;BME280;27623;51.966;4.602;2023-02-19T01:56:01;64345.47;;;10.42;100.00
41636;BME280;27623;51.966;4.602;2023-02-19T01:58:29;64349.47;;;10.41;100.00
41636;BME280;27623;51.966;4.602;2023-02-19T02:00:56;64348.38;;;10.40;100.00
41636;BME280;27623;51.966;4.602;2023-02-19T02:03:22;64349.81;;;10.46;100.00
41636;BME280;27623;51.966;4.602;2023-02-19T02:05:55;64356.38;;;10.45;100.00
41636;BME280;27623;51.966;4.602;2023-02-19T02:08:22;64356.91;;;10.46;100.00
41636;BME280;27623;51.966;4.602;2023-02-19T02:11:07;64380.94;;;10.54;100.00
41636;BME280;27623;51.966;4.602;2023-02-19T02:13:33;64362.56;;;10.53;100.00
41636;BME280;27623;51.966;4.602;2023-02-19T02:21:49;64344.38;;;10.48;100.00
41636;BME280;27623;51.966;4.602;2023-02-19T02:27:23;64367.09;;;10.53;100.00
41636;BME280;27623;51.966;4.602;2023-02-19T02:32:48;64376.75;;;10.52;100.00
41636;BME280;27623;51.966;4.602;2023-02-19T02:35:22;64373.66;;;10.59;100.00
41636;BME280;27623;51.966;4.602;2023-02-19T02:37:51;64367.09;;;10.60;100.00
41636;BME280;27623;51.966;4.602;2023-02-19T02:40:18;64409.13;;;10.63;100.00
41636;BME280;27623;51.966;4.602;2023-02-19T02:42:44;64373.28;;;10.61;100.00
41636;BME280;27623;51.966;4.602;2023-02-19T02:50:47;64379.66;;;10.57;100.00
41636;BME280;27623;51.966;4.602;2023-02-19T02:53:22;64349.63;;;10.51;100.00
41636;BME280;27623;51.966;4.602;2023-02-19T02:56:09;64374.03;;;10.57;100.00
41636;BME280;27623;51.966;4.602;2023-02-19T02:58:36;64347.63;;;10.58;100.00
41636;BME280;27623;51.966;4.602;2023-02-19T03:01:07;64364.38;;;10.57;100.00
41636;BME280;27623;51.966;4.602;2023-02-19T03:04:02;64379.47;;;10.62;100.00
41636;BME280;27623;51.966;4.602;2023-02-19T03:06:32;64340.91;;;10.57;100.00
41636;BME280;27623;51.966;4.602;2023-02-19T03:09:06;64381.66;;;10.57;100.00
41636;BME280;27623;51.966;4.602;2023-02-19T03:11:33;64331.81;;;10.51;100.00
41636;BME280;27623;51.966;4.602;2023-02-19T03:14:26;64388.22;;;10.49;100.00
41636;BME280;27623;51.966;4.602;2023-02-19T03:18:02;64360.19;;;10.56;100.00
41636;BME280;27623;51.966;4.602;2023-02-19T03:20:27;64359.47;;;10.53;100.00
41636;BME280;27623;51.966;4.602;2023-02-19T03:22:54;64373.28;;;10.54;100.00
41636;BME280;27623;51.966;4.602;2023-02-19T03:25:24;64342.00;;;10.51;100.00
41636;BME280;27623;51.966;4.602;2023-02-19T03:28:11;64362.00;;;10.60;100.00
41636;BME280;27623;51.966;4.602;2023-02-19T03:30:45;64351.47;;;10.48;100.00
41636;BME280;27623;51.966;4.602;2023-02-19T03:33:17;64383.13;;;10.49;100.00
41636;BME280;27623;51.966;4.602;2023-02-19T03:35:47;64312.88;;;10.43;100.00
41636;BME280;27623;51.966;4.602;2023-02-19T03:41:04;64350.38;;;10.47;100.00
41636;BME280;27623;51.966;4.602;2023-02-19T03:43:37;64344.00;;;10.43;100.00
41636;BME280;27623;51.966;4.602;2023-02-19T03:46:20;64380.75;;;10.51;100.00
41636;BME280;27623;51.966;4.602;2023-02-19T03:48:58;64331.06;;;10.55;100.00
41636;BME280;27623;51.966;4.602;2023-02-19T03:51:35;64386.75;;;10.50;100.00
41636;BME280;27623;51.966;4.602;2023-02-19T03:54:18;64374.03;;;10.50;100.00
41636;BME280;27623;51.966;4.602;2023-02-19T03:56:53;64366.94;;;10.50;100.00
41636;BME280;27623;51.966;4.602;2023-02-19T04:02:05;64353.47;;;10.40;100.00
41636;BME280;27623;51.966;4.602;2023-02-19T04:04:40;64356.94;;;10.39;100.00
41636;BME280;27623;51.966;4.602;2023-02-19T04:07:08;64324.91;;;10.40;100.00
41636;BME280;27623;51.966;4.602;2023-02-19T04:09:36;64368.94;;;10.43;100.00
41636;BME280;27623;51.966;4.602;2023-02-19T04:12:05;64327.44;;;10.40;100.00
41636;BME280;27623;51.966;4.602;2023-02-19T04:14:38;64316.56;;;10.29;100.00
41636;BME280;27623;51.966;4.602;2023-02-19T04:17:09;64378.22;;;10.44;100.00
41636;BME280;27623;51.966;4.602;2023-02-19T04:19:39;64358.19;;;10.42;100.00
41636;BME280;27623;51.966;4.602;2023-02-19T04:22:06;64349.84;;;10.32;100.00
41636;BME280;27623;51.966;4.602;2023-02-19T04:24:37;64357.31;;;10.22;100.00
41636;BME280;27623;51.966;4.602;2023-02-19T04:27:04;64360.56;;;10.18;100.00
41636;BME280;27623;51.966;4.602;2023-02-19T04:29:30;64322.38;;;10.18;100.00
41636;BME280;27623;51.966;4.602;2023-02-19T04:31:56;64334.03;;;10.17;100.00
41636;BME280;27623;51.966;4.602;2023-02-19T04:34:22;64301.84;;;10.16;100.00
41636;BME280;27623;51.966;4.602;2023-02-19T04:36:47;64333.84;;;10.08;100.00
41636;BME280;27623;51.966;4.602;2023-02-19T04:39:12;64320.03;;;10.14;100.00
41636;BME280;27623;51.966;4.602;2023-02-19T04:41:38;64339.84;;;10.20;100.00
41636;BME280;27623;51.966;4.602;2023-02-19T04:44:04;64334.03;;;10.24;100.00
41636;BME280;27623;51.966;4.602;2023-02-19T04:46:29;64309.66;;;10.18;100.00
41636;BME280;27623;51.966;4.602;2023-02-19T04:48:54;64335.84;;;10.14;100.00
41636;BME280;27623;51.966;4.602;2023-02-19T04:51:20;64314.03;;;10.08;100.00
41636;BME280;27623;51.966;4.602;2023-02-19T04:53:45;64314.38;;;10.06;100.00
41636;BME280;27623;51.966;4.602;2023-02-19T04:56:13;64287.66;;;10.10;100.00
41636;BME280;27623;51.966;4.602;2023-02-19T04:58:40;64304.19;;;10.20;100.00
41636;BME280;27623;51.966;4.602;2023-02-19T05:01:06;64332.03;;;10.25;100.00
41636;BME280;27623;51.966;4.602;2023-02-19T05:03:32;64344.03;;;10.15;100.00
41636;BME280;27623;51.966;4.602;2023-02-19T05:06:07;64307.28;;;10.14;100.00
41636;BME280;27623;51.966;4.602;2023-02-19T05:08:33;64308.38;;;10.15;100.00
41636;BME280;27623;51.966;4.602;2023-02-19T05:11:01;64338.03;;;10.16;100.00
41636;BME280;27623;51.966;4.602;2023-02-19T05:13:28;64287.28;;;10.19;100.00
41636;BME280;27623;51.966;4.602;2023-02-19T05:15:55;64322.94;;;10.19;100.00
41636;BME280;27623;51.966;4.602;2023-02-19T05:18:21;64333.47;;;10.24;100.00
41636;BME280;27623;51.966;4.602;2023-02-19T05:20:47;64323.47;;;10.19;100.00
41636;BME280;27623;51.966;4.602;2023-02-19T05:23:12;64286.56;;;10.16;100.00
41636;BME280;27623;51.966;4.602;2023-02-19T05:25:37;64340.38;;;10.14;100.00
41636;BME280;27623;51.966;4.602;2023-02-19T05:28:03;64298.38;;;10.17;100.00
41636;BME280;27623;51.966;4.602;2023-02-19T05:30:48;64348.56;;;10.21;100.00
41636;BME280;27623;51.966;4.602;2023-02-19T05:33:15;64296.91;;;10.25;100.00
41636;BME280;27623;51.966;4.602;2023-02-19T05:36:04;64299.28;;;10.16;100.00
41636;BME280;27623;51.966;4.602;2023-02-19T05:38:30;64316.19;;;10.10;100.00
41636;BME280;27623;51.966;4.602;2023-02-19T05:41:05;64282.19;;;10.12;100.00
41636;BME280;27623;51.966;4.602;2023-02-19T05:43:31;64284.56;;;10.02;100.00
41636;BME280;27623;51.966;4.602;2023-02-19T05:45:59;64310.75;;;10.12;100.00
41636;BME280;27623;51.966;4.602;2023-02-19T05:48:25;64326.75;;;10.08;100.00
41636;BME280;27623;51.966;4.602;2023-02-19T05:50:50;64308.94;;;10.01;100.00
41636;BME280;27623;51.966;4.602;2023-02-19T05:53:15;64330.19;;;9.99;100.00
41636;BME280;27623;51.966;4.602;2023-02-19T05:55:41;64315.13;;;9.95;100.00
41636;BME280;27623;51.966;4.602;2023-02-19T05:58:06;64317.66;;;10.09;100.00
41636;BME280;27623;51.966;4.602;2023-02-19T06:00:32;64286.94;;;9.92;100.00
41636;BME280;27623;51.966;4.602;2023-02-19T06:02:58;64307.66;;;9.90;100.00
41636;BME280;27623;51.966;4.602;2023-02-19T06:05:23;64305.84;;;9.93;100.00
41636;BME280;27623;51.966;4.602;2023-02-19T06:07:49;64300.56;;;9.98;100.00
41636;BME280;27623;51.966;4.602;2023-02-19T06:10:15;64278.59;;;9.96;100.00
41636;BME280;27623;51.966;4.602;2023-02-19T06:12:40;64312.59;;;9.95;100.00
41636;BME280;27623;51.966;4.602;2023-02-19T06:15:06;64292.75;;;9.88;100.00
41636;BME280;27623;51.966;4.602;2023-02-19T06:17:32;64282.75;;;9.84;100.00
41636;BME280;27623;51.966;4.602;2023-02-19T06:19:58;64271.84;;;9.88;100.00
41636;BME280;27623;51.966;4.602;2023-02-19T06:22:24;64288.94;;;9.92;100.00
41636;BME280;27623;51.966;4.602;2023-02-19T06:24:49;64270.03;;;9.91;100.00
41636;BME280;27623;51.966;4.602;2023-02-19T06:27:14;64279.31;;;9.92;100.00
41636;BME280;27623;51.966;4.602;2023-02-19T06:29:40;64272.59;;;9.91;100.00
41636;BME280;27623;51.966;4.602;2023-02-19T06:32:06;64289.84;;;9.90;100.00
41636;BME280;27623;51.966;4.602;2023-02-19T06:34:32;64301.31;;;9.94;100.00
41636;BME280;27623;51.966;4.602;2023-02-19T06:36:58;64270.03;;;9.91;100.00
41636;BME280;27623;51.966;4.602;2023-02-19T06:39:25;64301.84;;;9.87;100.00
41636;BME280;27623;51.966;4.602;2023-02-19T06:41:50;64270.41;;;9.82;100.00
41636;BME280;27623;51.966;4.602;2023-02-19T06:44:16;64294.75;;;9.88;100.00
41636;BME280;27623;51.966;4.602;2023-02-19T06:46:42;64287.84;;;9.91;100.00
41636;BME280;27623;51.966;4.602;2023-02-19T06:49:07;64262.41;;;9.84;100.00
41636;BME280;27623;51.966;4.602;2023-02-19T06:51:33;64281.31;;;9.85;100.00
41636;BME280;27623;51.966;4.602;2023-02-19T06:53:59;64261.31;;;9.83;100.00
41636;BME280;27623;51.966;4.602;2023-02-19T06:56:31;64289.31;;;9.90;100.00
41636;BME280;27623;51.966;4.602;2023-02-19T06:58:59;64300.22;;;9.93;100.00
41636;BME280;27623;51.966;4.602;2023-02-19T07:01:26;64335.84;;;9.93;100.00
41636;BME280;27623;51.966;4.602;2023-02-19T07:03:51;64304.94;;;9.88;100.00
41636;BME280;27623;51.966;4.602;2023-02-19T07:06:19;64266.03;;;9.92;100.00
41636;BME280;27623;51.966;4.602;2023-02-19T07:08:44;64282.94;;;9.86;100.00
41636;BME280;27623;51.966;4.602;2023-02-19T07:11:10;64273.69;;;9.92;100.00
41636;BME280;27623;51.966;4.602;2023-02-19T07:13:36;64288.22;;;9.96;100.00
41636;BME280;27623;51.966;4.602;2023-02-19T07:16:04;64284.19;;;10.04;100.00
41636;BME280;27623;51.966;4.602;2023-02-19T07:18:30;64318.03;;;9.93;100.00
41636;BME280;27623;51.966;4.602;2023-02-19T07:21:04;64291.13;;;9.87;100.00
41636;BME280;27623;51.966;4.602;2023-02-19T07:23:30;64310.22;;;9.90;100.00
41636;BME280;27623;51.966;4.602;2023-02-19T07:25:55;64273.84;;;9.87;100.00
41636;BME280;27623;51.966;4.602;2023-02-19T07:28:21;64252.59;;;9.82;100.00
41636;BME280;27623;51.966;4.602;2023-02-19T07:30:46;64278.59;;;9.82;100.00
41636;BME280;27623;51.966;4.602;2023-02-19T07:33:12;64268.59;;;9.78;100.00
41636;BME280;27623;51.966;4.602;2023-02-19T07:35:37;64277.84;;;9.86;100.00
41636;BME280;27623;51.966;4.602;2023-02-19T07:38:02;64297.66;;;9.86;100.00
41636;BME280;27623;51.966;4.602;2023-02-19T07:40:28;64282.03;;;9.88;100.00
41636;BME280;27623;51.966;4.602;2023-02-19T07:42:53;64269.13;;;9.78;100.00
41636;BME280;27623;51.966;4.602;2023-02-19T07:45:19;64293.84;;;9.82;100.00
41636;BME280;27623;51.966;4.602;2023-02-19T07:47:44;64316.78;;;9.75;100.00
41636;BME280;27623;51.966;4.602;2023-02-19T07:50:09;64269.13;;;9.78;100.00
41636;BME280;27623;51.966;4.602;2023-02-19T07:52:35;64305.50;;;9.88;100.00
41636;BME280;27623;51.966;4.602;2023-02-19T07:55:00;64295.84;;;9.82;100.00
41636;BME280;27623;51.966;4.602;2023-02-19T07:57:27;64302.22;;;9.85;100.00
41636;BME280;27623;51.966;4.602;2023-02-19T07:59:53;64259.69;;;9.81;100.00
41636;BME280;27623;51.966;4.602;2023-02-19T08:02:19;64315.13;;;9.81;100.00
41636;BME280;27623;51.966;4.602;2023-02-19T08:05:05;64261.13;;;9.80;100.00
41636;BME280;27623;51.966;4.602;2023-02-19T08:07:34;64280.22;;;9.84;100.00
41636;BME280;27623;51.966;4.602;2023-02-19T08:10:00;64288.59;;;9.80;100.00
41636;BME280;27623;51.966;4.602;2023-02-19T08:12:56;64266.22;;;9.87;100.00
41636;BME280;27623;51.966;4.602;2023-02-19T08:15:41;64301.13;;;9.84;100.00
41636;BME280;27623;51.966;4.602;2023-02-19T08:18:07;64279.31;;;9.85;100.00
41636;BME280;27623;51.966;4.602;2023-02-19T08:20:32;64287.31;;;9.83;100.00
41636;BME280;27623;51.966;4.602;2023-02-19T08:22:57;64308.41;;;9.79;100.00
41636;BME280;27623;51.966;4.602;2023-02-19T08:25:23;64309.66;;;9.83;100.00
41636;BME280;27623;51.966;4.602;2023-02-19T08:27:48;64252.78;;;9.77;100.00
41636;BME280;27623;51.966;4.602;2023-02-19T08:30:14;64258.41;;;9.85;100.00
41636;BME280;27623;51.966;4.602;2023-02-19T08:32:39;64297.66;;;9.86;100.00
41636;BME280;27623;51.966;4.602;2023-02-19T08:35:05;64275.13;;;9.84;100.00
41636;BME280;27623;51.966;4.602;2023-02-19T08:37:30;64285.31;;;9.91;100.00
41636;BME280;27623;51.966;4.602;2023-02-19T08:39:56;64331.66;;;9.91;100.00
41636;BME280;27623;51.966;4.602;2023-02-19T08:42:21;64305.13;;;9.90;100.00
41636;BME280;27623;51.966;4.602;2023-02-19T08:44:47;64281.69;;;9.83;100.00
41636;BME280;27623;51.966;4.602;2023-02-19T08:47:12;64300.59;;;9.91;100.00
41636;BME280;27623;51.966;4.602;2023-02-19T08:49:39;64281.69;;;9.97;100.00
41636;BME280;27623;51.966;4.602;2023-02-19T08:52:04;64312.94;;;10.00;100.00
41636;BME280;27623;51.966;4.602;2023-02-19T08:54:30;64310.22;;;9.97;100.00
41636;BME280;27623;51.966;4.602;2023-02-19T08:56:55;64300.03;;;9.97;100.00
41636;BME280;27623;51.966;4.602;2023-02-19T08:59:21;64304.94;;;9.95;100.00
41636;BME280;27623;51.966;4.602;2023-02-19T09:01:46;64296.00;;;9.98;100.00
41636;BME280;27623;51.966;4.602;2023-02-19T09:04:13;64322.00;;;9.99;100.00
41636;BME280;27623;51.966;4.602;2023-02-19T09:06:39;64298.75;;;10.01;100.00
41636;BME280;27623;51.966;4.602;2023-02-19T09:09:04;64330.38;;;10.02;100.00
41636;BME280;27623;51.966;4.602;2023-02-19T09:11:29;64343.84;;;10.05;100.00
41636;BME280;27623;51.966;4.602;2023-02-19T09:13:55;64305.28;;;10.07;100.00
41636;BME280;27623;51.966;4.602;2023-02-19T09:16:21;64284.56;;;10.09;100.00
41636;BME280;27623;51.966;4.602;2023-02-19T09:18:47;64324.94;;;10.11;100.00
41636;BME280;27623;51.966;4.602;2023-02-19T09:21:13;64314.75;;;10.04;100.00
41636;BME280;27623;51.966;4.602;2023-02-19T09:23:38;64328.38;;;10.10;100.00
41636;BME280;27623;51.966;4.602;2023-02-19T09:26:05;64301.66;;;10.13;100.00
41636;BME280;27623;51.966;4.602;2023-02-19T09:28:31;64315.47;;;10.14;100.00
41636;BME280;27623;51.966;4.602;2023-02-19T09:31:02;64318.03;;;10.14;100.00
41636;BME280;27623;51.966;4.602;2023-02-19T09:33:28;64331.28;;;10.22;100.00
41636;BME280;27623;51.966;4.602;2023-02-19T09:35:53;64345.66;;;10.30;100.00
41636;BME280;27623;51.966;4.602;2023-02-19T09:38:19;64313.66;;;10.39;100.00
41636;BME280;27623;51.966;4.602;2023-02-19T09:40:44;64334.19;;;10.41;100.00
41636;BME280;27623;51.966;4.602;2023-02-19T09:43:16;64381.47;;;10.54;100.00
41636;BME280;27623;51.966;4.602;2023-02-19T09:45:43;64369.09;;;10.59;100.00
41636;BME280;27623;51.966;4.602;2023-02-19T09:48:09;64400.97;;;10.56;100.00
41636;BME280;27623;51.966;4.602;2023-02-19T09:50:39;64397.13;;;10.66;100.00
41636;BME280;27623;51.966;4.602;2023-02-19T09:53:14;64380.38;;;10.67;100.00
41636;BME280;27623;51.966;4.602;2023-02-19T09:55:42;64399.31;;;10.68;100.00
41636;BME280;27623;51.966;4.602;2023-02-19T09:58:29;64362.16;;;10.62;100.00
41636;BME280;27623;51.966;4.602;2023-02-19T10:00:57;64370.19;;;10.60;100.00
41636;BME280;27623;51.966;4.602;2023-02-19T10:03:31;64369.44;;;10.64;100.00
41636;BME280;27623;51.966;4.602;2023-02-19T10:06:05;64363.47;;;10.52;100.00
41636;BME280;27623;51.966;4.602;2023-02-19T10:08:34;64376.03;;;10.49;100.00
41636;BME280;27623;51.966;4.602;2023-02-19T10:11:01;64368.03;;;10.51;100.00
41636;BME280;27623;51.966;4.602;2023-02-19T10:13:33;64358.56;;;10.40;100.00
41636;BME280;27623;51.966;4.602;2023-02-19T10:16:02;64335.44;;;10.45;100.00
41636;BME280;27623;51.966;4.602;2023-02-19T10:18:34;64356.19;;;10.43;100.00
41636;BME280;27623;51.966;4.602;2023-02-19T10:21:01;64361.09;;;10.47;100.00
41636;BME280;27623;51.966;4.602;2023-02-19T10:23:26;64364.22;;;10.33;100.00
41636;BME280;27623;51.966;4.602;2023-02-19T10:25:55;64334.56;;;10.25;100.00
41636;BME280;27623;51.966;4.602;2023-02-19T10:28:32;64358.75;;;10.21;100.00
41636;BME280;27623;51.966;4.602;2023-02-19T10:31:00;64303.28;;;10.22;100.00
41636;BME280;27623;51.966;4.602;2023-02-19T10:33:26;64326.94;;;10.25;100.00
41636;BME280;27623;51.966;4.602;2023-02-19T10:35:59;64294.56;;;10.21;100.00
41636;BME280;27623;51.966;4.602;2023-02-19T10:38:35;64340.22;;;10.25;100.00
41636;BME280;27623;51.966;4.602;2023-02-19T10:41:06;64359.50;;;10.24;100.00
41636;BME280;27623;51.966;4.602;2023-02-19T10:43:37;64325.47;;;10.12;100.00
41636;BME280;27623;51.966;4.602;2023-02-19T10:46:15;64312.56;;;10.09;100.00
41636;BME280;27623;51.966;4.602;2023-02-19T10:48:46;64303.84;;;10.15;100.00
41636;BME280;27623;51.966;4.602;2023-02-19T10:51:14;64325.66;;;10.07;100.00
41636;BME280;27623;51.966;4.602;2023-02-19T10:53:51;64331.13;;;10.12;100.00
41636;BME280;27623;51.966;4.602;2023-02-19T10:56:27;64320.94;;;10.12;100.00
41636;BME280;27623;51.966;4.602;2023-02-19T10:59:13;64328.56;;;10.05;100.00
41636;BME280;27623;51.966;4.602;2023-02-19T11:01:58;64314.38;;;10.06;100.00
41636;BME280;27623;51.966;4.602;2023-02-19T11:04:31;64291.28;;;10.11;100.00
41636;BME280;27623;51.966;4.602;2023-02-19T11:07:16;64292.56;;;10.07;100.00
41636;BME280;27623;51.966;4.602;2023-02-19T11:09:48;64323.47;;;10.05;100.00
41636;BME280;27623;51.966;4.602;2023-02-19T11:12:30;64305.47;;;10.10;100.00
41636;BME280;27623;51.966;4.602;2023-02-19T11:15:48;64304.94;;;10.09;100.00
41636;BME280;27623;51.966;4.602;2023-02-19T11:17:54;64292.75;;;10.17;100.00
41636;BME280;27623;51.966;4.602;2023-02-19T11:20:20;64294.94;;;10.05;100.00
41636;BME280;27623;51.966;4.602;2023-02-19T11:22:45;64310.56;;;10.03;100.00
41636;BME280;27623;51.966;4.602;2023-02-19T11:28:02;64290.38;;;10.12;100.00
41636;BME280;27623;51.966;4.602;2023-02-19T11:35:40;64379.28;;;10.66;100.00
41636;BME280;27623;51.966;4.602;2023-02-19T11:38:09;64351.97;;;10.62;100.00
41636;BME280;27623;51.966;4.602;2023-02-19T11:43:52;64389.66;;;10.62;100.00
41636;BME280;27623;51.966;4.602;2023-02-19T11:46:25;64357.81;;;10.51;100.00
41636;BME280;27623;51.966;4.602;2023-02-19T11:54:20;64343.28;;;10.40;100.00
41636;BME280;27623;51.966;4.602;2023-02-19T11:57:20;64361.66;;;10.41;100.00
41636;BME280;27623;51.966;4.602;2023-02-19T11:59:59;64359.66;;;10.41;100.00
41636;BME280;27623;51.966;4.602;2023-02-19T12:16:30;64359.50;;;10.24;100.00
41636;BME280;27623;51.966;4.602;2023-02-19T12:21:53;64305.84;;;10.22;100.00
41636;BME280;27623;51.966;4.602;2023-02-19T12:24:44;64339.47;;;10.22;100.00
41636;BME280;27623;51.966;4.602;2023-02-19T12:32:51;64336.38;;;10.29;100.00
41636;BME280;27623;51.966;4.602;2023-02-19T12:35:42;64325.09;;;10.28;100.00
41636;BME280;27623;51.966;4.602;2023-02-19T12:38:20;64321.84;;;10.32;100.00
41636;BME280;27623;51.966;4.602;2023-02-19T12:46:37;64363.47;;;10.59;100.00
41636;BME280;27623;51.966;4.602;2023-02-19T12:49:18;64361.06;;;10.61;100.00
41636;BME280;27623;51.966;4.602;2023-02-19T12:51:54;64384.91;;;10.60;100.00
41636;BME280;27623;51.966;4.602;2023-02-19T12:54:29;64367.47;;;10.51;100.00
41636;BME280;27623;51.966;4.602;2023-02-19T12:57:03;64337.63;;;10.47;100.00
41636;BME280;27623;51.966;4.602;2023-02-19T13:07:25;64332.38;;;10.37;100.00
41636;BME280;27623;51.966;4.602;2023-02-19T13:10:02;64318.56;;;10.29;100.00
41636;BME280;27623;51.966;4.602;2023-02-19T13:12:34;64354.41;;;10.31;100.00
41636;BME280;27623;51.966;4.602;2023-02-19T13:15:13;64353.13;;;10.35;100.00
41636;BME280;27623;51.966;4.602;2023-02-19T13:17:50;64330.75;;;10.28;100.00
41636;BME280;27623;51.966;4.602;2023-02-19T13:20:36;64352.41;;;10.32;100.00
41636;BME280;27623;51.966;4.602;2023-02-19T13:23:34;64333.47;;;10.38;100.00
41636;BME280;27623;51.966;4.602;2023-02-19T13:35:41;64371.03;;;10.94;97.97
41636;BME280;27623;51.966;4.602;2023-02-19T13:38:14;64436.53;;;11.34;95.61
41636;BME280;27623;51.966;4.602;2023-02-19T13:40:41;64496.97;;;11.66;92.90
41636;BME280;27623;51.966;4.602;2023-02-19T13:43:24;64534.66;;;12.09;89.16
41636;BME280;27623;51.966;4.602;2023-02-19T13:45:59;64587.31;;;12.46;88.40
41636;BME280;27623;51.966;4.602;2023-02-19T13:59:21;64458.59;;;11.28;91.24
41636;BME280;27623;51.966;4.602;2023-02-19T14:04:48;64460.22;;;11.37;91.75
41636;BME280;27623;51.966;4.602;2023-02-19T14:31:01;64370.00;;;10.65;94.04
41636;BME280;27623;51.966;4.602;2023-02-19T14:33:30;64419.16;;;10.75;94.77
41636;BME280;27623;51.966;4.602;2023-02-19T14:36:17;64432.00;;;11.20;93.28
41636;BME280;27623;51.966;4.602;2023-02-19T14:39:11;64468.19;;;11.63;90.65
41636;BME280;27623;51.966;4.602;2023-02-19T14:41:38;64512.47;;;11.76;90.06
41636;BME280;27623;51.966;4.602;2023-02-19T14:46:43;64510.47;;;11.69;87.77
41636;BME280;27623;51.966;4.602;2023-02-19T14:51:43;64490.44;;;11.46;87.46
41636;BME280;27623;51.966;4.602;2023-02-19T14:54:38;64450.38;;;11.28;86.85
41636;BME280;27623;51.966;4.602;2023-02-19T14:57:01;64431.66;;;11.15;87.98
41636;BME280;27623;51.966;4.602;2023-02-19T14:59:29;64414.72;;;11.07;90.29
41636;BME280;27623;51.966;4.602;2023-02-19T15:02:00;64379.75;;;11.02;91.26
41636;BME280;27623;51.966;4.602;2023-02-19T15:04:34;64403.81;;;10.89;93.07
41636;BME280;27623;51.966;4.602;2023-02-19T15:07:02;64381.25;;;10.87;93.23
41636;BME280;27623;51.966;4.602;2023-02-19T15:09:32;64382.16;;;10.86;93.81
41636;BME280;27623;51.966;4.602;2023-02-19T15:12:00;64371.97;;;10.86;96.05
41636;BME280;27623;51.966;4.602;2023-02-19T15:14:27;64386.38;;;10.73;97.73
41636;BME280;27623;51.966;4.602;2023-02-19T15:17:01;64364.91;;;10.65;97.48